sensor_id;sensor_type;location;lat;lon;timestamp;P1;P2;P0
62547;PMS7003;48602;45.192;5.722;2023-04-15T00:01:54;5.50;5.50;5.00
62547;PMS7003;48602;45.192;5.722;2023-04-15T00:04:22;4.00;3.50;2.50
62547;PMS7003;48602;45.192;5.722;2023-04-15T00:06:51;5.25;5.25;4.25
62547;PMS7003;48602;45.192;5.722;2023-04-15T00:09:17;7.00;7.00;6.25
62547;PMS7003;48602;45.192;5.722;2023-04-15T00:11:43;8.25;8.25;6.50
62547;PMS7003;48602;45.192;5.722;2023-04-15T00:14:10;6.00;6.00;5.50
62547;PMS7003;48602;45.192;5.722;2023-04-15T00:16:36;4.00;4.00;3.25
62547;PMS7003;48602;45.192;5.722;2023-04-15T00:19:01;5.75;5.75;4.75
62547;PMS7003;48602;45.192;5.722;2023-04-15T00:21:27;8.25;6.25;5.25
62547;PMS7003;48602;45.192;5.722;2023-04-15T00:23:53;6.25;6.25;5.00
62547;PMS7003;48602;45.192;5.722;2023-04-15T00:26:18;6.50;6.00;5.00
62547;PMS7003;48602;45.192;5.722;2023-04-15T00:28:44;5.00;5.00;4.50
62547;PMS7003;48602;45.192;5.722;2023-04-15T00:31:10;6.00;5.00;4.75
62547;PMS7003;48602;45.192;5.722;2023-04-15T00:33:36;5.50;5.50;4.00
62547;PMS7003;48602;45.192;5.722;2023-04-15T00:36:01;6.00;5.50;4.75
62547;PMS7003;48602;45.192;5.722;2023-04-15T00:38:27;11.00;7.00;6.00
62547;PMS7003;48602;45.192;5.722;2023-04-15T00:40:53;7.00;6.00;5.00
62547;PMS7003;48602;45.192;5.722;2023-04-15T00:43:20;5.00;5.00;4.25
62547;PMS7003;48602;45.192;5.722;2023-04-15T00:45:45;5.75;5.00;5.00
62547;PMS7003;48602;45.192;5.722;2023-04-15T00:48:11;7.25;5.00;4.00
62547;PMS7003;48602;45.192;5.722;2023-04-15T00:50:37;7.00;6.25;5.00
62547;PMS7003;48602;45.192;5.722;2023-04-15T00:53:03;7.50;5.00;4.00
62547;PMS7003;48602;45.192;5.722;2023-04-15T00:55:28;5.50;5.50;5.00
62547;PMS7003;48602;45.192;5.722;2023-04-15T00:57:54;6.25;6.00;4.75
62547;PMS7003;48602;45.192;5.722;2023-04-15T01:00:21;5.50;5.00;4.00
62547;PMS7003;48602;45.192;5.722;2023-04-15T01:02:46;5.00;5.00;4.00
62547;PMS7003;48602;45.192;5.722;2023-04-15T01:05:12;7.00;5.00;4.00
62547;PMS7003;48602;45.192;5.722;2023-04-15T01:07:38;6.50;6.50;5.00
62547;PMS7003;48602;45.192;5.722;2023-04-15T01:10:04;5.00;4.75;4.00
62547;PMS7003;48602;45.192;5.722;2023-04-15T01:12:29;7.00;7.00;5.50
62547;PMS7003;48602;45.192;5.722;2023-04-15T01:14:57;7.25;5.25;5.00
62547;PMS7003;48602;45.192;5.722;2023-04-15T01:17:23;6.00;2.75;2.25
62547;PMS7003;48602;45.192;5.722;2023-04-15T01:19:49;5.50;5.50;4.50
62547;PMS7003;48602;45.192;5.722;2023-04-15T01:22:15;7.00;4.25;4.00
62547;PMS7003;48602;45.192;5.722;2023-04-15T01:24:42;5.50;4.75;4.25
62547;PMS7003;48602;45.192;5.722;2023-04-15T01:27:16;4.25;4.25;3.50
62547;PMS7003;48602;45.192;5.722;2023-04-15T01:29:41;5.50;4.75;4.25
62547;PMS7003;48602;45.192;5.722;2023-04-15T01:32:07;5.75;5.25;4.75
62547;PMS7003;48602;45.192;5.722;2023-04-15T01:34:32;5.00;5.00;4.00
62547;PMS7003;48602;45.192;5.722;2023-04-15T01:36:58;4.25;4.25;3.25
62547;PMS7003;48602;45.192;5.722;2023-04-15T01:39:23;5.50;5.50;5.00
62547;PMS7003;48602;45.192;5.722;2023-04-15T01:41:49;7.00;5.00;4.00
62547;PMS7003;48602;45.192;5.722;2023-04-15T01:44:14;5.50;5.50;5.00
62547;PMS7003;48602;45.192;5.722;2023-04-15T01:46:40;6.00;6.00;5.25
62547;PMS7003;48602;45.192;5.722;2023-04-15T01:49:05;8.75;8.00;5.00
62547;PMS7003;48602;45.192;5.722;2023-04-15T01:51:31;5.00;4.25;4.00
62547;PMS7003;48602;45.192;5.722;2023-04-15T01:53:57;9.50;8.50;6.00
62547;PMS7003;48602;45.192;5.722;2023-04-15T01:56:22;5.25;5.25;4.00
62547;PMS7003;48602;45.192;5.722;2023-04-15T01:58:48;6.25;6.00;5.25
62547;PMS7003;48602;45.192;5.722;2023-04-15T02:01:14;7.25;7.00;5.00
62547;PMS7003;48602;45.192;5.722;2023-04-15T02:03:40;8.50;6.25;5.50
62547;PMS7003;48602;45.192;5.722;2023-04-15T02:06:06;9.00;7.25;6.00
62547;PMS7003;48602;45.192;5.722;2023-04-15T02:08:32;6.25;6.00;5.00
62547;PMS7003;48602;45.192;5.722;2023-04-15T02:10:57;5.50;5.50;4.75
62547;PMS7003;48602;45.192;5.722;2023-04-15T02:13:23;6.25;6.25;5.00
62547;PMS7003;48602;45.192;5.722;2023-04-15T02:15:48;5.25;4.75;4.00
62547;PMS7003;48602;45.192;5.722;2023-04-15T02:18:15;5.75;5.50;4.50
62547;PMS7003;48602;45.192;5.722;2023-04-15T02:20:41;6.25;6.00;5.00
62547;PMS7003;48602;45.192;5.722;2023-04-15T02:23:08;7.00;7.00;5.50
62547;PMS7003;48602;45.192;5.722;2023-04-15T02:25:35;6.50;5.75;4.00
62547;PMS7003;48602;45.192;5.722;2023-04-15T02:28:01;6.25;5.75;5.00
62547;PMS7003;48602;45.192;5.722;2023-04-15T02:30:26;6.75;5.25;5.00
62547;PMS7003;48602;45.192;5.722;2023-04-15T02:32:52;5.50;4.50;4.00
62547;PMS7003;48602;45.192;5.722;2023-04-15T02:35:17;5.50;5.00;4.00
62547;PMS7003;48602;45.192;5.722;2023-04-15T02:37:44;4.50;4.00;4.00
62547;PMS7003;48602;45.192;5.722;2023-04-15T02:40:10;10.00;6.00;4.00
62547;PMS7003;48602;45.192;5.722;2023-04-15T02:42:37;6.00;5.75;4.25
62547;PMS7003;48602;45.192;5.722;2023-04-15T02:45:05;10.00;8.75;7.00
62547;PMS7003;48602;45.192;5.722;2023-04-15T02:47:32;4.25;4.00;3.00
62547;PMS7003;48602;45.192;5.722;2023-04-15T02:49:58;8.25;6.75;5.50
62547;PMS7003;48602;45.192;5.722;2023-04-15T02:52:25;6.00;5.75;5.00
62547;PMS7003;48602;45.192;5.722;2023-04-15T02:54:51;3.25;2.00;2.00
62547;PMS7003;48602;45.192;5.722;2023-04-15T02:57:18;3.75;2.00;2.00
62547;PMS7003;48602;45.192;5.722;2023-04-15T02:59:43;2.00;1.00;1.00
62547;PMS7003;48602;45.192;5.722;2023-04-15T03:02:09;4.00;3.00;3.00
62547;PMS7003;48602;45.192;5.722;2023-04-15T03:04:35;2.50;2.00;2.00
62547;PMS7003;48602;45.192;5.722;2023-04-15T03:07:00;5.50;2.75;2.75
62547;PMS7003;48602;45.192;5.722;2023-04-15T03:09:26;3.00;2.25;2.00
62547;PMS7003;48602;45.192;5.722;2023-04-15T03:11:51;2.00;1.50;1.25
62547;PMS7003;48602;45.192;5.722;2023-04-15T03:14:18;2.00;2.00;2.00
62547;PMS7003;48602;45.192;5.722;2023-04-15T03:16:44;1.75;1.75;1.00
62547;PMS7003;48602;45.192;5.722;2023-04-15T03:19:09;3.50;3.00;2.00
62547;PMS7003;48602;45.192;5.722;2023-04-15T03:21:34;2.00;2.00;1.25
62547;PMS7003;48602;45.192;5.722;2023-04-15T03:24:00;3.50;3.50;2.00
62547;PMS7003;48602;45.192;5.722;2023-04-15T03:26:29;2.00;2.00;2.00
62547;PMS7003;48602;45.192;5.722;2023-04-15T03:28:55;3.00;2.00;2.00
62547;PMS7003;48602;45.192;5.722;2023-04-15T03:31:21;2.00;2.00;1.40
62547;PMS7003;48602;45.192;5.722;2023-04-15T03:33:47;1.50;1.50;1.00
62547;PMS7003;48602;45.192;5.722;2023-04-15T03:36:12;0.00;0.00;0.00
62547;PMS7003;48602;45.192;5.722;2023-04-15T03:38:38;1.25;1.25;1.00
62547;PMS7003;48602;45.192;5.722;2023-04-15T03:41:03;2.00;2.00;1.75
62547;PMS7003;48602;45.192;5.722;2023-04-15T03:43:29;4.00;4.00;4.00
62547;PMS7003;48602;45.192;5.722;2023-04-15T03:45:54;6.00;4.50;4.00
62547;PMS7003;48602;45.192;5.722;2023-04-15T03:48:20;5.50;4.25;3.00
62547;PMS7003;48602;45.192;5.722;2023-04-15T03:50:45;4.00;4.00;3.00
62547;PMS7003;48602;45.192;5.722;2023-04-15T03:53:11;4.00;4.00;3.00
62547;PMS7003;48602;45.192;5.722;2023-04-15T03:55:36;4.00;3.75;3.00
62547;PMS7003;48602;45.192;5.722;2023-04-15T03:58:02;4.75;3.00;3.00
62547;PMS7003;48602;45.192;5.722;2023-04-15T04:00:27;4.00;4.00;3.50
62547;PMS7003;48602;45.192;5.722;2023-04-15T04:02:53;3.25;2.75;2.50
62547;PMS7003;48602;45.192;5.722;2023-04-15T04:05:18;5.50;5.00;4.25
62547;PMS7003;48602;45.192;5.722;2023-04-15T04:07:43;8.25;4.00;3.00
62547;PMS7003;48602;45.192;5.722;2023-04-15T04:10:09;3.00;3.00;2.00
62547;PMS7003;48602;45.192;5.722;2023-04-15T04:12:35;3.00;2.00;1.75
62547;PMS7003;48602;45.192;5.722;2023-04-15T04:15:00;4.00;2.25;2.00
62547;PMS7003;48602;45.192;5.722;2023-04-15T04:17:26;2.25;2.25;2.00
62547;PMS7003;48602;45.192;5.722;2023-04-15T04:19:51;2.00;2.00;2.00
62547;PMS7003;48602;45.192;5.722;2023-04-15T04:22:17;3.00;2.50;2.00
62547;PMS7003;48602;45.192;5.722;2023-04-15T04:24:46;6.75;4.50;3.75
62547;PMS7003;48602;45.192;5.722;2023-04-15T04:27:11;4.00;4.00;3.00
62547;PMS7003;48602;45.192;5.722;2023-04-15T04:29:36;3.00;3.00;3.00
62547;PMS7003;48602;45.192;5.722;2023-04-15T04:32:02;3.50;3.00;2.75
62547;PMS7003;48602;45.192;5.722;2023-04-15T04:34:27;7.00;3.25;3.00
62547;PMS7003;48602;45.192;5.722;2023-04-15T04:36:52;4.00;4.00;3.00
62547;PMS7003;48602;45.192;5.722;2023-04-15T04:39:18;4.25;4.00;4.00
62547;PMS7003;48602;45.192;5.722;2023-04-15T04:41:43;3.50;3.50;3.50
62547;PMS7003;48602;45.192;5.722;2023-04-15T04:44:08;4.00;3.00;3.00
62547;PMS7003;48602;45.192;5.722;2023-04-15T04:46:34;5.00;3.00;3.00
62547;PMS7003;48602;45.192;5.722;2023-04-15T04:48:59;3.25;3.25;3.00
62547;PMS7003;48602;45.192;5.722;2023-04-15T04:51:25;6.00;3.00;2.75
62547;PMS7003;48602;45.192;5.722;2023-04-15T04:53:50;2.50;2.50;2.50
62547;PMS7003;48602;45.192;5.722;2023-04-15T04:56:15;4.00;4.00;4.00
62547;PMS7003;48602;45.192;5.722;2023-04-15T04:58:41;3.50;3.00;3.00
62547;PMS7003;48602;45.192;5.722;2023-04-15T05:01:06;6.75;5.50;4.50
62547;PMS7003;48602;45.192;5.722;2023-04-15T05:03:32;4.00;4.00;3.75
62547;PMS7003;48602;45.192;5.722;2023-04-15T05:05:58;3.50;3.00;2.00
62547;PMS7003;48602;45.192;5.722;2023-04-15T05:08:23;5.50;4.25;4.00
62547;PMS7003;48602;45.192;5.722;2023-04-15T05:10:49;5.00;4.00;3.75
62547;PMS7003;48602;45.192;5.722;2023-04-15T05:13:14;4.00;3.00;3.00
62547;PMS7003;48602;45.192;5.722;2023-04-15T05:15:39;4.75;4.75;4.00
62547;PMS7003;48602;45.192;5.722;2023-04-15T05:18:07;4.00;4.00;3.00
62547;PMS7003;48602;45.192;5.722;2023-04-15T05:20:32;4.00;4.00;3.00
62547;PMS7003;48602;45.192;5.722;2023-04-15T05:22:58;9.00;5.00;4.00
62547;PMS7003;48602;45.192;5.722;2023-04-15T05:25:23;9.25;7.50;5.75
62547;PMS7003;48602;45.192;5.722;2023-04-15T05:27:48;8.50;8.50;7.25
62547;PMS7003;48602;45.192;5.722;2023-04-15T05:30:14;10.00;9.25;9.00
62547;PMS7003;48602;45.192;5.722;2023-04-15T05:32:40;7.25;6.00;6.00
62547;PMS7003;48602;45.192;5.722;2023-04-15T05:35:05;7.75;7.50;6.25
62547;PMS7003;48602;45.192;5.722;2023-04-15T05:37:32;7.50;7.25;5.50
62547;PMS7003;48602;45.192;5.722;2023-04-15T05:39:57;9.00;9.00;9.00
62547;PMS7003;48602;45.192;5.722;2023-04-15T05:42:22;11.00;9.75;6.50
62547;PMS7003;48602;45.192;5.722;2023-04-15T05:44:48;10.50;9.00;7.25
62547;PMS7003;48602;45.192;5.722;2023-04-15T05:47:13;9.75;7.25;6.00
62547;PMS7003;48602;45.192;5.722;2023-04-15T05:49:39;6.75;6.75;6.00
62547;PMS7003;48602;45.192;5.722;2023-04-15T05:52:04;9.50;6.75;5.50
62547;PMS7003;48602;45.192;5.722;2023-04-15T05:54:29;9.00;9.00;8.67
62547;PMS7003;48602;45.192;5.722;2023-04-15T05:56:55;7.00;7.00;7.00
62547;PMS7003;48602;45.192;5.722;2023-04-15T05:59:21;8.25;8.25;6.50
62547;PMS7003;48602;45.192;5.722;2023-04-15T06:01:47;6.00;6.00;5.00
62547;PMS7003;48602;45.192;5.722;2023-04-15T06:04:12;8.50;8.50;6.00
62547;PMS7003;48602;45.192;5.722;2023-04-15T06:06:37;7.00;5.00;4.75
62547;PMS7003;48602;45.192;5.722;2023-04-15T06:09:03;6.00;6.00;5.00
62547;PMS7003;48602;45.192;5.722;2023-04-15T06:11:29;7.00;7.00;6.00
62547;PMS7003;48602;45.192;5.722;2023-04-15T06:13:54;6.00;6.00;6.00
62547;PMS7003;48602;45.192;5.722;2023-04-15T06:16:20;9.00;6.00;5.50
62547;PMS7003;48602;45.192;5.722;2023-04-15T06:18:46;5.25;4.75;4.25
62547;PMS7003;48602;45.192;5.722;2023-04-15T06:21:12;4.00;4.00;4.00
62547;PMS7003;48602;45.192;5.722;2023-04-15T06:23:37;3.50;3.50;3.00
62547;PMS7003;48602;45.192;5.722;2023-04-15T06:26:05;4.00;4.00;4.00
62547;PMS7003;48602;45.192;5.722;2023-04-15T06:28:31;4.00;4.00;3.00
62547;PMS7003;48602;45.192;5.722;2023-04-15T06:30:56;5.00;5.00;4.00
62547;PMS7003;48602;45.192;5.722;2023-04-15T06:33:22;3.50;3.50;3.50
62547;PMS7003;48602;45.192;5.722;2023-04-15T06:35:47;4.00;3.25;2.50
62547;PMS7003;48602;45.192;5.722;2023-04-15T06:38:13;3.75;3.00;3.00
62547;PMS7003;48602;45.192;5.722;2023-04-15T06:40:39;4.00;4.00;3.00
62547;PMS7003;48602;45.192;5.722;2023-04-15T06:43:04;3.50;3.00;2.00
62547;PMS7003;48602;45.192;5.722;2023-04-15T06:45:30;2.75;2.75;2.00
62547;PMS7003;48602;45.192;5.722;2023-04-15T06:47:56;5.25;5.25;4.50
62547;PMS7003;48602;45.192;5.722;2023-04-15T06:50:21;4.50;4.50;4.25
62547;PMS7003;48602;45.192;5.722;2023-04-15T06:52:47;2.00;2.00;2.00
62547;PMS7003;48602;45.192;5.722;2023-04-15T06:55:12;4.25;4.25;3.00
62547;PMS7003;48602;45.192;5.722;2023-04-15T06:57:38;4.50;4.50;2.75
62547;PMS7003;48602;45.192;5.722;2023-04-15T07:00:04;6.75;6.00;5.00
62547;PMS7003;48602;45.192;5.722;2023-04-15T07:02:31;4.00;4.00;3.00
62547;PMS7003;48602;45.192;5.722;2023-04-15T07:04:56;2.25;2.25;2.00
62547;PMS7003;48602;45.192;5.722;2023-04-15T07:07:22;4.00;4.00;3.75
62547;PMS7003;48602;45.192;5.722;2023-04-15T07:09:47;3.00;2.00;1.25
62547;PMS7003;48602;45.192;5.722;2023-04-15T07:12:12;4.50;3.00;2.75
62547;PMS7003;48602;45.192;5.722;2023-04-15T07:14:38;3.00;3.00;3.00
62547;PMS7003;48602;45.192;5.722;2023-04-15T07:17:03;5.75;3.75;3.00
62547;PMS7003;48602;45.192;5.722;2023-04-15T07:19:29;4.25;4.00;3.00
62547;PMS7003;48602;45.192;5.722;2023-04-15T07:21:54;3.75;3.00;3.00
62547;PMS7003;48602;45.192;5.722;2023-04-15T07:24:19;3.75;3.75;2.75
62547;PMS7003;48602;45.192;5.722;2023-04-15T07:26:47;6.50;4.50;4.00
62547;PMS7003;48602;45.192;5.722;2023-04-15T07:29:12;5.25;4.50;3.75
62547;PMS7003;48602;45.192;5.722;2023-04-15T07:31:38;5.25;4.00;3.00
62547;PMS7003;48602;45.192;5.722;2023-04-15T07:34:05;4.75;4.75;3.75
62547;PMS7003;48602;45.192;5.722;2023-04-15T07:36:31;5.00;5.00;4.50
62547;PMS7003;48602;45.192;5.722;2023-04-15T07:38:56;5.75;5.75;5.00
62547;PMS7003;48602;45.192;5.722;2023-04-15T07:41:22;3.50;3.50;2.75
62547;PMS7003;48602;45.192;5.722;2023-04-15T07:43:48;6.50;4.50;4.50
62547;PMS7003;48602;45.192;5.722;2023-04-15T07:46:13;6.00;5.50;4.25
62547;PMS7003;48602;45.192;5.722;2023-04-15T07:48:39;2.25;2.00;2.00
62547;PMS7003;48602;45.192;5.722;2023-04-15T07:51:05;2.25;2.00;1.00
62547;PMS7003;48602;45.192;5.722;2023-04-15T07:53:30;0.00;0.00;0.00
62547;PMS7003;48602;45.192;5.722;2023-04-15T07:55:57;0.00;0.00;0.00
62547;PMS7003;48602;45.192;5.722;2023-04-15T07:58:23;0.00;0.00;0.00
62547;PMS7003;48602;45.192;5.722;2023-04-15T08:00:48;0.00;0.00;0.00
62547;PMS7003;48602;45.192;5.722;2023-04-15T08:03:14;0.00;0.00;0.00
62547;PMS7003;48602;45.192;5.722;2023-04-15T08:05:40;0.00;0.00;0.00
62547;PMS7003;48602;45.192;5.722;2023-04-15T08:08:05;0.00;0.00;0.00
62547;PMS7003;48602;45.192;5.722;2023-04-15T08:10:31;0.00;0.00;0.00
62547;PMS7003;48602;45.192;5.722;2023-04-15T08:12:56;1.50;0.75;0.75
62547;PMS7003;48602;45.192;5.722;2023-04-15T08:15:22;0.00;0.00;0.00
62547;PMS7003;48602;45.192;5.722;2023-04-15T08:17:47;0.00;0.00;0.00
62547;PMS7003;48602;45.192;5.722;2023-04-15T08:20:13;1.00;0.00;0.00
62547;PMS7003;48602;45.192;5.722;2023-04-15T08:22:38;0.00;0.00;0.00
62547;PMS7003;48602;45.192;5.722;2023-04-15T08:25:05;0.00;0.00;0.00
62547;PMS7003;48602;45.192;5.722;2023-04-15T08:27:30;0.00;0.00;0.00
62547;PMS7003;48602;45.192;5.722;2023-04-15T08:29:56;2.00;0.00;0.00
62547;PMS7003;48602;45.192;5.722;2023-04-15T08:32:21;0.00;0.00;0.00
62547;PMS7003;48602;45.192;5.722;2023-04-15T08:34:47;0.00;0.00;0.00
62547;PMS7003;48602;45.192;5.722;2023-04-15T08:37:12;0.00;0.00;0.00
62547;PMS7003;48602;45.192;5.722;2023-04-15T08:39:38;0.00;0.00;0.00
62547;PMS7003;48602;45.192;5.722;2023-04-15T08:42:03;0.00;0.00;0.00
62547;PMS7003;48602;45.192;5.722;2023-04-15T08:44:35;0.00;0.00;0.00
62547;PMS7003;48602;45.192;5.722;2023-04-15T08:47:02;0.00;0.00;0.00
62547;PMS7003;48602;45.192;5.722;2023-04-15T08:49:31;0.00;0.00;0.00
62547;PMS7003;48602;45.192;5.722;2023-04-15T08:51:57;0.00;0.00;0.00
62547;PMS7003;48602;45.192;5.722;2023-04-15T08:54:23;0.00;0.00;0.00
62547;PMS7003;48602;45.192;5.722;2023-04-15T08:56:49;0.00;0.00;0.00
62547;PMS7003;48602;45.192;5.722;2023-04-15T08:59:16;0.00;0.00;0.00
62547;PMS7003;48602;45.192;5.722;2023-04-15T09:01:42;0.00;0.00;0.00
62547;PMS7003;48602;45.192;5.722;2023-04-15T09:04:08;0.00;0.00;0.00
62547;PMS7003;48602;45.192;5.722;2023-04-15T09:06:34;0.00;0.00;0.00
62547;PMS7003;48602;45.192;5.722;2023-04-15T09:08:59;1.50;0.25;0.25
62547;PMS7003;48602;45.192;5.722;2023-04-15T09:11:25;0.00;0.00;0.00
62547;PMS7003;48602;45.192;5.722;2023-04-15T09:13:51;0.50;0.00;0.00
62547;PMS7003;48602;45.192;5.722;2023-04-15T09:16:16;0.00;0.00;0.00
62547;PMS7003;48602;45.192;5.722;2023-04-15T09:18:42;1.00;1.00;1.00
62547;PMS7003;48602;45.192;5.722;2023-04-15T09:21:08;0.75;0.00;0.00
62547;PMS7003;48602;45.192;5.722;2023-04-15T09:23:36;1.25;0.00;0.00
62547;PMS7003;48602;45.192;5.722;2023-04-15T09:26:02;0.00;0.00;0.00
62547;PMS7003;48602;45.192;5.722;2023-04-15T09:28:29;0.00;0.00;0.00
62547;PMS7003;48602;45.192;5.722;2023-04-15T09:30:58;0.00;0.00;0.00
62547;PMS7003;48602;45.192;5.722;2023-04-15T09:33:26;0.00;0.00;0.00
62547;PMS7003;48602;45.192;5.722;2023-04-15T09:35:59;0.00;0.00;0.00
62547;PMS7003;48602;45.192;5.722;2023-04-15T09:38:29;0.00;0.00;0.00
62547;PMS7003;48602;45.192;5.722;2023-04-15T09:40:55;0.00;0.00;0.00
62547;PMS7003;48602;45.192;5.722;2023-04-15T09:43:22;0.00;0.00;0.00
62547;PMS7003;48602;45.192;5.722;2023-04-15T09:45:51;0.00;0.00;0.00
62547;PMS7003;48602;45.192;5.722;2023-04-15T09:48:24;0.00;0.00;0.00
62547;PMS7003;48602;45.192;5.722;2023-04-15T09:50:52;0.00;0.00;0.00
62547;PMS7003;48602;45.192;5.722;2023-04-15T09:53:22;0.00;0.00;0.00
62547;PMS7003;48602;45.192;5.722;2023-04-15T09:55:56;0.00;0.00;0.00
62547;PMS7003;48602;45.192;5.722;2023-04-15T09:58:23;0.00;0.00;0.00
62547;PMS7003;48602;45.192;5.722;2023-04-15T10:00:54;0.00;0.00;0.00
62547;PMS7003;48602;45.192;5.722;2023-04-15T10:03:21;1.00;0.00;0.00
62547;PMS7003;48602;45.192;5.722;2023-04-15T10:05:49;0.00;0.00;0.00
62547;PMS7003;48602;45.192;5.722;2023-04-15T10:08:17;0.00;0.00;0.00
62547;PMS7003;48602;45.192;5.722;2023-04-15T10:10:45;0.00;0.00;0.00
62547;PMS7003;48602;45.192;5.722;2023-04-15T10:13:16;0.00;0.00;0.00
62547;PMS7003;48602;45.192;5.722;2023-04-15T10:15:43;0.00;0.00;0.00
62547;PMS7003;48602;45.192;5.722;2023-04-15T10:18:17;0.00;0.00;0.00
62547;PMS7003;48602;45.192;5.722;2023-04-15T10:20:43;0.00;0.00;0.00
62547;PMS7003;48602;45.192;5.722;2023-04-15T10:23:10;0.00;0.00;0.00
62547;PMS7003;48602;45.192;5.722;2023-04-15T10:25:36;0.00;0.00;0.00
62547;PMS7003;48602;45.192;5.722;2023-04-15T10:28:02;0.00;0.00;0.00
62547;PMS7003;48602;45.192;5.722;2023-04-15T10:30:30;0.00;0.00;0.00
62547;PMS7003;48602;45.192;5.722;2023-04-15T10:32:57;0.00;0.00;0.00
62547;PMS7003;48602;45.192;5.722;2023-04-15T10:35:23;0.00;0.00;0.00
62547;PMS7003;48602;45.192;5.722;2023-04-15T10:37:49;0.00;0.00;0.00
62547;PMS7003;48602;45.192;5.722;2023-04-15T10:40:24;1.00;0.00;0.00
62547;PMS7003;48602;45.192;5.722;2023-04-15T10:42:54;0.00;0.00;0.00
62547;PMS7003;48602;45.192;5.722;2023-04-15T10:45:21;0.00;0.00;0.00
62547;PMS7003;48602;45.192;5.722;2023-04-15T10:47:50;0.00;0.00;0.00
62547;PMS7003;48602;45.192;5.722;2023-04-15T10:50:17;0.00;0.00;0.00
62547;PMS7003;48602;45.192;5.722;2023-04-15T10:52:43;0.25;0.00;0.00
62547;PMS7003;48602;45.192;5.722;2023-04-15T10:57:38;0.50;0.50;0.50
62547;PMS7003;48602;45.192;5.722;2023-04-15T11:02:41;0.75;0.25;0.00
62547;PMS7003;48602;45.192;5.722;2023-04-15T11:05:06;1.00;1.00;1.00
62547;PMS7003;48602;45.192;5.722;2023-04-15T11:07:36;0.00;0.00;0.00
62547;PMS7003;48602;45.192;5.722;2023-04-15T11:12:46;1.00;1.00;0.75
62547;PMS7003;48602;45.192;5.722;2023-04-15T11:18:14;2.00;2.00;1.00
62547;PMS7003;48602;45.192;5.722;2023-04-15T11:20:41;1.00;1.00;1.00
62547;PMS7003;48602;45.192;5.722;2023-04-15T11:23:09;0.40;0.40;0.00
62547;PMS7003;48602;45.192;5.722;2023-04-15T11:25:35;0.00;0.00;0.00
62547;PMS7003;48602;45.192;5.722;2023-04-15T11:28:03;0.00;0.00;0.00
62547;PMS7003;48602;45.192;5.722;2023-04-15T11:30:30;0.00;0.00;0.00
62547;PMS7003;48602;45.192;5.722;2023-04-15T11:32:58;0.00;0.00;0.00
62547;PMS7003;48602;45.192;5.722;2023-04-15T11:35:25;0.75;0.75;0.75
62547;PMS7003;48602;45.192;5.722;2023-04-15T11:37:50;0.00;0.00;0.00
62547;PMS7003;48602;45.192;5.722;2023-04-15T11:40:16;0.75;0.75;0.75
62547;PMS7003;48602;45.192;5.722;2023-04-15T11:43:02;0.25;0.25;0.25
62547;PMS7003;48602;45.192;5.722;2023-04-15T11:45:54;3.25;2.00;1.00
62547;PMS7003;48602;45.192;5.722;2023-04-15T11:48:22;0.00;0.00;0.00
62547;PMS7003;48602;45.192;5.722;2023-04-15T11:53:35;0.00;0.00;0.00
62547;PMS7003;48602;45.192;5.722;2023-04-15T11:56:01;0.00;0.00;0.00
62547;PMS7003;48602;45.192;5.722;2023-04-15T11:58:28;0.00;0.00;0.00
62547;PMS7003;48602;45.192;5.722;2023-04-15T12:00:54;0.00;0.00;0.00
62547;PMS7003;48602;45.192;5.722;2023-04-15T12:03:29;2.00;0.00;0.00
62547;PMS7003;48602;45.192;5.722;2023-04-15T12:06:04;0.00;0.00;0.00
62547;PMS7003;48602;45.192;5.722;2023-04-15T12:09:14;1.00;0.00;0.00
62547;PMS7003;48602;45.192;5.722;2023-04-15T12:13:55;0.00;0.00;0.00
62547;PMS7003;48602;45.192;5.722;2023-04-15T12:16:45;0.00;0.00;0.00
62547;PMS7003;48602;45.192;5.722;2023-04-15T12:19:16;0.00;0.00;0.00
62547;PMS7003;48602;45.192;5.722;2023-04-15T12:21:44;0.00;0.00;0.00
62547;PMS7003;48602;45.192;5.722;2023-04-15T12:24:11;0.00;0.00;0.00
62547;PMS7003;48602;45.192;5.722;2023-04-15T12:26:42;0.00;0.00;0.00
62547;PMS7003;48602;45.192;5.722;2023-04-15T12:29:09;0.00;0.00;0.00
62547;PMS7003;48602;45.192;5.722;2023-04-15T12:31:36;0.00;0.00;0.00
62547;PMS7003;48602;45.192;5.722;2023-04-15T12:34:10;1.00;0.00;0.00
62547;PMS7003;48602;45.192;5.722;2023-04-15T12:36:35;0.00;0.00;0.00
62547;PMS7003;48602;45.192;5.722;2023-04-15T12:39:04;0.00;0.00;0.00
62547;PMS7003;48602;45.192;5.722;2023-04-15T12:41:33;0.00;0.00;0.00
62547;PMS7003;48602;45.192;5.722;2023-04-15T12:43:58;0.00;0.00;0.00
62547;PMS7003;48602;45.192;5.722;2023-04-15T12:46:25;1.00;1.00;1.00
62547;PMS7003;48602;45.192;5.722;2023-04-15T12:48:51;0.00;0.00;0.00
62547;PMS7003;48602;45.192;5.722;2023-04-15T12:51:17;0.00;0.00;0.00
62547;PMS7003;48602;45.192;5.722;2023-04-15T12:53:42;0.00;0.00;0.00
62547;PMS7003;48602;45.192;5.722;2023-04-15T12:56:08;0.00;0.00;0.00
62547;PMS7003;48602;45.192;5.722;2023-04-15T12:58:33;1.00;0.00;0.00
62547;PMS7003;48602;45.192;5.722;2023-04-15T13:00:59;0.00;0.00;0.00
62547;PMS7003;48602;45.192;5.722;2023-04-15T13:03:24;0.00;0.00;0.00
62547;PMS7003;48602;45.192;5.722;2023-04-15T13:05:50;0.00;0.00;0.00
62547;PMS7003;48602;45.192;5.722;2023-04-15T13:08:15;0.00;0.00;0.00
62547;PMS7003;48602;45.192;5.722;2023-04-15T13:10:41;0.00;0.00;0.00
62547;PMS7003;48602;45.192;5.722;2023-04-15T13:13:07;0.00;0.00;0.00
62547;PMS7003;48602;45.192;5.722;2023-04-15T13:15:33;0.00;0.00;0.00
62547;PMS7003;48602;45.192;5.722;2023-04-15T13:17:58;0.00;0.00;0.00
62547;PMS7003;48602;45.192;5.722;2023-04-15T13:20:24;1.00;1.00;1.00
62547;PMS7003;48602;45.192;5.722;2023-04-15T13:22:51;0.00;0.00;0.00
62547;PMS7003;48602;45.192;5.722;2023-04-15T13:25:17;0.25;0.00;0.00
62547;PMS7003;48602;45.192;5.722;2023-04-15T13:27:42;0.00;0.00;0.00
62547;PMS7003;48602;45.192;5.722;2023-04-15T13:30:08;0.00;0.00;0.00
62547;PMS7003;48602;45.192;5.722;2023-04-15T13:32:33;0.00;0.00;0.00
62547;PMS7003;48602;45.192;5.722;2023-04-15T13:34:59;0.00;0.00;0.00
62547;PMS7003;48602;45.192;5.722;2023-04-15T13:37:25;0.00;0.00;0.00
62547;PMS7003;48602;45.192;5.722;2023-04-15T13:39:52;0.00;0.00;0.00
62547;PMS7003;48602;45.192;5.722;2023-04-15T13:42:17;0.00;0.00;0.00
62547;PMS7003;48602;45.192;5.722;2023-04-15T13:44:43;0.00;0.00;0.00
62547;PMS7003;48602;45.192;5.722;2023-04-15T13:47:08;0.00;0.00;0.00
62547;PMS7003;48602;45.192;5.722;2023-04-15T13:49:33;0.00;0.00;0.00
62547;PMS7003;48602;45.192;5.722;2023-04-15T13:51:59;0.00;0.00;0.00
62547;PMS7003;48602;45.192;5.722;2023-04-15T13:54:24;0.00;0.00;0.00
62547;PMS7003;48602;45.192;5.722;2023-04-15T13:56:49;0.00;0.00;0.00
62547;PMS7003;48602;45.192;5.722;2023-04-15T13:59:15;2.50;0.00;0.00
62547;PMS7003;48602;45.192;5.722;2023-04-15T14:01:40;3.25;0.75;0.75
62547;PMS7003;48602;45.192;5.722;2023-04-15T14:04:06;1.00;0.00;0.00
62547;PMS7003;48602;45.192;5.722;2023-04-15T14:06:31;1.00;1.00;0.00
62547;PMS7003;48602;45.192;5.722;2023-04-15T14:08:56;0.00;0.00;0.00
62547;PMS7003;48602;45.192;5.722;2023-04-15T14:11:22;0.25;0.00;0.00
62547;PMS7003;48602;45.192;5.722;2023-04-15T14:13:47;0.00;0.00;0.00
62547;PMS7003;48602;45.192;5.722;2023-04-15T14:16:13;0.00;0.00;0.00
62547;PMS7003;48602;45.192;5.722;2023-04-15T14:18:38;0.00;0.00;0.00
62547;PMS7003;48602;45.192;5.722;2023-04-15T14:21:04;0.00;0.00;0.00
62547;PMS7003;48602;45.192;5.722;2023-04-15T14:23:31;0.00;0.00;0.00
62547;PMS7003;48602;45.192;5.722;2023-04-15T14:25:56;1.00;0.00;0.00
62547;PMS7003;48602;45.192;5.722;2023-04-15T14:28:21;1.25;1.25;1.25
62547;PMS7003;48602;45.192;5.722;2023-04-15T14:30:47;0.00;0.00;0.00
62547;PMS7003;48602;45.192;5.722;2023-04-15T14:33:12;0.00;0.00;0.00
62547;PMS7003;48602;45.192;5.722;2023-04-15T14:35:38;0.00;0.00;0.00